Time;durP1;ratioP1;P1;durP2;ratioP2;P2;SDS_P1;SDS_P2;PMS_P1;PMS_P2;Temp;Humidity;BMP_temperature;BMP_pressure;BME280_temperature;BME280_humidity;BME280_pressure;Samples;Min_cycle;Max_cycle;Signal;HPM_P1;HPM_P2
2023/01/20 00:01:01;;;;;;;23.38;13.68;;;3.20;99.90;;;;;;4992237;28;20026;-73
2023/01/20 00:03:27;;;;;;;22.88;13.93;;;3.20;99.90;;;;;;4992433;28;20022;-73
2023/01/20 00:05:52;;;;;;;21.73;14.35;;;3.20;99.90;;;;;;4994270;28;20030;-73
2023/01/20 00:08:18;;;;;;;23.17;14.30;;;3.10;99.90;;;;;;4993093;28;20420;-73
2023/01/20 00:10:44;;;;;;;25.70;13.85;;;3.00;99.90;;;;;;4991852;28;20070;-74
2023/01/20 00:13:10;;;;;;;23.05;14.82;;;3.00;99.90;;;;;;4992372;28;20457;-73
2023/01/20 00:15:36;;;;;;;24.13;15.25;;;2.90;99.90;;;;;;4991822;28;20041;-73
2023/01/20 00:18:02;;;;;;;22.92;14.20;;;3.00;99.90;;;;;;4991923;28;20030;-75
2023/01/20 00:20:28;;;;;;;23.85;13.90;;;2.90;99.90;;;;;;4991869;28;20556;-75
2023/01/20 00:22:54;;;;;;;22.90;15.23;;;2.90;99.90;;;;;;4994997;28;20022;-74
2023/01/20 00:25:20;;;;;;;25.48;16.00;;;2.80;99.90;;;;;;4995835;28;20026;-76
2023/01/20 00:27:45;;;;;;;23.65;14.38;;;2.80;99.90;;;;;;4990858;28;20050;-73
2023/01/20 00:30:12;;;;;;;25.60;16.40;;;2.80;99.90;;;;;;4991491;28;20065;-75
2023/01/20 00:32:43;;;;;;;22.65;14.75;;;2.80;99.90;;;;;;4991736;28;20061;-73
2023/01/20 00:35:10;;;;;;;22.98;13.65;;;2.70;99.90;;;;;;4991258;28;20029;-74
2023/01/20 00:37:36;;;;;;;24.33;14.45;;;2.80;99.90;;;;;;4990633;28;20022;-74
2023/01/20 00:40:03;;;;;;;27.52;16.20;;;2.70;99.90;;;;;;4992778;28;20034;-73
2023/01/20 00:42:28;;;;;;;23.75;15.45;;;2.80;99.90;;;;;;4991458;28;20026;-73
2023/01/20 00:44:54;;;;;;;26.65;17.02;;;2.70;99.90;;;;;;4991703;28;20841;-74
2023/01/20 00:47:20;;;;;;;25.38;16.85;;;2.70;99.90;;;;;;4991209;28;20034;-74
2023/01/20 00:49:47;;;;;;;26.13;17.00;;;2.70;99.90;;;;;;4994262;28;20069;-74
2023/01/20 00:52:13;;;;;;;26.88;17.85;;;2.70;99.90;;;;;;4992590;28;20026;-73
2023/01/20 00:54:39;;;;;;;26.33;17.45;;;2.70;99.90;;;;;;4994141;28;20033;-73
2023/01/20 00:57:05;;;;;;;25.77;15.32;;;2.80;99.90;;;;;;4995156;28;20029;-73
2023/01/20 00:59:31;;;;;;;27.20;15.85;;;2.80;99.90;;;;;;4991707;28;20023;-74
2023/01/20 01:01:57;;;;;;;26.10;15.05;;;2.80;99.90;;;;;;4991314;28;20493;-73
2023/01/20 01:04:23;;;;;;;28.50;16.75;;;2.90;99.90;;;;;;4991261;28;20453;-73
2023/01/20 01:06:49;;;;;;;26.02;16.38;;;2.80;99.90;;;;;;4991574;28;20018;-73
2023/01/20 01:09:15;;;;;;;25.20;15.93;;;2.70;99.90;;;;;;4991048;28;20031;-73
2023/01/20 01:11:41;;;;;;;25.42;16.10;;;2.70;99.90;;;;;;4991113;28;20038;-74
2023/01/20 01:14:07;;;;;;;23.73;16.90;;;2.70;99.90;;;;;;4991165;28;20037;-74
2023/01/20 01:16:33;;;;;;;28.45;17.52;;;2.60;99.90;;;;;;4991127;28;20470;-75
2023/01/20 01:18:59;;;;;;;26.85;18.02;;;2.70;99.90;;;;;;4991091;28;20042;-73
2023/01/20 01:21:26;;;;;;;27.58;16.90;;;2.60;99.90;;;;;;4991135;28;20022;-75
2023/01/20 01:23:52;;;;;;;26.83;17.42;;;2.60;99.90;;;;;;4991383;28;20390;-74
2023/01/20 01:26:19;;;;;;;25.10;16.73;;;2.60;99.90;;;;;;4990749;28;20026;-73
2023/01/20 01:28:47;;;;;;;27.77;17.23;;;2.60;99.90;;;;;;4990229;28;20022;-75
2023/01/20 01:31:14;;;;;;;27.70;17.77;;;2.60;99.90;;;;;;4993785;28;20459;-74
2023/01/20 01:33:41;;;;;;;28.05;17.40;;;2.50;99.90;;;;;;5007483;28;20022;-74
2023/01/20 01:36:10;;;;;;;28.50;17.50;;;2.50;99.90;;;;;;5010328;28;20072;-75
2023/01/20 01:38:36;;;;;;;27.17;17.35;;;2.50;99.90;;;;;;5009956;28;20034;-74
2023/01/20 01:41:02;;;;;;;31.17;18.70;;;2.40;99.90;;;;;;5011626;28;20029;-74
2023/01/20 01:43:30;;;;;;;29.00;18.88;;;2.30;99.90;;;;;;5011165;28;20034;-74
2023/01/20 01:45:56;;;;;;;31.17;20.38;;;2.30;99.90;;;;;;5009761;28;20567;-75
2023/01/20 01:48:44;;;;;;;33.25;19.92;;;2.30;99.90;;;;;;5009743;28;20124;-75
2023/01/20 01:51:15;;;;;;;27.83;19.17;;;2.30;99.90;;;;;;5011363;28;20057;-76
2023/01/20 01:53:46;;;;;;;28.95;18.65;;;2.30;99.90;;;;;;5010215;28;20029;-76
2023/01/20 01:56:13;;;;;;;28.45;18.42;;;2.20;99.90;;;;;;5009783;28;20176;-74
2023/01/20 01:58:44;;;;;;;30.48;20.05;;;2.20;99.90;;;;;;5010537;28;20026;-73
2023/01/20 02:01:10;;;;;;;30.83;19.58;;;2.20;99.90;;;;;;5009570;28;20029;-75
2023/01/20 02:03:52;;;;;;;30.30;20.02;;;2.20;99.90;;;;;;5010793;28;20477;-76
2023/01/20 02:06:20;;;;;;;32.22;21.95;;;2.10;99.90;;;;;;5008157;28;20030;-74
2023/01/20 02:08:47;;;;;;;31.30;20.25;;;2.10;99.90;;;;;;5008962;28;20025;-75
2023/01/20 02:11:12;;;;;;;33.22;19.38;;;2.20;99.90;;;;;;5015647;28;20095;-76
2023/01/20 02:13:39;;;;;;;32.13;20.02;;;2.20;99.90;;;;;;5014955;28;20029;-76
2023/01/20 02:16:21;;;;;;;33.42;21.73;;;2.20;99.90;;;;;;5005311;28;20046;-75
2023/01/20 02:19:32;;;;;;;30.38;19.38;;;2.20;99.90;;;;;;5007785;28;20033;-74
2023/01/20 02:22:22;;;;;;;30.65;18.48;;;2.20;99.90;;;;;;4968393;28;20444;-74
2023/01/20 02:25:05;;;;;;;27.45;18.00;;;2.10;99.90;;;;;;4973990;28;20042;-74
2023/01/20 02:27:46;;;;;;;29.02;18.20;;;2.10;99.90;;;;;;4966736;28;20053;-76
2023/01/20 02:30:45;;;;;;;29.73;17.77;;;2.10;99.90;;;;;;4973945;28;20031;-76
2023/01/20 02:33:30;;;;;;;30.80;18.75;;;2.10;99.90;;;;;;4973826;28;20102;-76
2023/01/20 02:36:02;;;;;;;27.92;17.98;;;2.10;99.90;;;;;;4973789;28;20031;-76
2023/01/20 02:38:41;;;;;;;31.70;19.90;;;2.10;99.90;;;;;;4973568;28;20094;-76
2023/01/20 02:41:40;;;;;;;30.75;19.85;;;2.00;99.90;;;;;;4974081;28;20426;-75
2023/01/20 02:44:12;;;;;;;27.58;18.20;;;2.00;99.90;;;;;;4953911;28;20045;-74
2023/01/20 02:47:07;;;;;;;27.00;17.63;;;1.90;99.90;;;;;;4973431;28;20378;-73
2023/01/20 02:49:46;;;;;;;28.27;18.63;;;1.90;99.90;;;;;;4973264;28;20522;-74
2023/01/20 02:52:15;;;;;;;34.20;21.73;;;1.80;99.90;;;;;;4973785;28;20057;-73
2023/01/20 02:54:47;;;;;;;34.22;23.98;;;1.90;99.90;;;;;;4973249;28;20031;-73
2023/01/20 02:57:17;;;;;;;31.92;21.83;;;1.90;99.90;;;;;;4981228;28;20091;-74
2023/01/20 02:59:47;;;;;;;29.92;18.52;;;1.80;99.90;;;;;;5000603;28;20037;-73
2023/01/20 03:02:18;;;;;;;26.83;16.90;;;1.90;99.90;;;;;;5013645;28;20113;-73
2023/01/20 03:04:49;;;;;;;27.23;17.80;;;1.90;99.90;;;;;;5006180;28;20517;-73
2023/01/20 03:07:17;;;;;;;28.42;17.25;;;1.80;99.90;;;;;;5014065;28;20078;-74
2023/01/20 03:09:48;;;;;;;28.30;17.85;;;1.70;99.90;;;;;;5013989;28;20054;-74
2023/01/20 03:12:23;;;;;;;26.35;17.25;;;1.80;99.90;;;;;;5014141;28;20034;-74
2023/01/20 03:14:51;;;;;;;28.63;17.65;;;1.80;99.90;;;;;;5014434;28;20065;-73
2023/01/20 03:17:18;;;;;;;28.00;17.38;;;1.70;99.90;;;;;;5014217;28;20088;-75
2023/01/20 03:19:44;;;;;;;27.98;18.52;;;1.70;99.90;;;;;;5013562;28;20049;-74
2023/01/20 03:22:10;;;;;;;27.52;17.92;;;1.70;99.90;;;;;;5013985;28;20369;-75
2023/01/20 03:24:37;;;;;;;28.00;18.15;;;1.70;99.90;;;;;;5014309;28;20466;-74
2023/01/20 03:27:03;;;;;;;26.35;17.27;;;1.70;99.90;;;;;;5014047;28;20045;-75
2023/01/20 03:29:29;;;;;;;28.73;17.67;;;1.70;99.90;;;;;;5013994;28;20022;-73
2023/01/20 03:32:01;;;;;;;29.60;17.48;;;1.70;99.90;;;;;;5013661;28;20037;-74
2023/01/20 03:34:31;;;;;;;27.80;18.42;;;1.70;99.90;;;;;;5013876;28;20068;-74
2023/01/20 03:36:57;;;;;;;32.47;18.25;;;1.70;99.90;;;;;;5013991;28;20111;-74
2023/01/20 03:39:24;;;;;;;27.88;17.77;;;1.70;99.90;;;;;;5014015;28;20564;-74
2023/01/20 03:42:04;;;;;;;32.55;20.27;;;1.80;99.90;;;;;;5013322;28;20021;-73
2023/01/20 03:44:42;;;;;;;34.92;20.38;;;1.80;99.90;;;;;;5013915;28;20034;-74
2023/01/20 03:47:17;;;;;;;39.88;25.67;;;1.70;99.90;;;;;;5013731;28;20030;-74
2023/01/20 03:50:07;;;;;;;43.70;27.60;;;1.80;99.90;;;;;;5012963;28;20528;-78
2023/01/20 03:53:15;;;;;;;55.53;33.78;;;1.80;99.90;;;;;;5007552;28;20045;-74
2023/01/20 03:55:56;;;;;;;44.20;29.77;;;1.80;99.90;;;;;;4972226;28;20050;-74
2023/01/20 03:58:30;;;;;;;41.63;27.38;;;1.80;99.90;;;;;;4972639;28;20478;-74
2023/01/20 04:00:58;;;;;;;35.63;25.33;;;1.80;99.90;;;;;;4971525;28;20482;-73
2023/01/20 04:03:32;;;;;;;35.80;23.15;;;1.80;99.90;;;;;;4972577;28;20490;-73
2023/01/20 04:06:01;;;;;;;27.60;19.00;;;1.80;99.90;;;;;;4971869;28;20039;-75
2023/01/20 04:08:32;;;;;;;28.63;18.42;;;1.80;99.90;;;;;;4972253;28;20027;-77
2023/01/20 04:11:00;;;;;;;25.20;16.27;;;1.90;99.90;;;;;;4972136;28;20031;-77
2023/01/20 04:13:26;;;;;;;28.95;17.63;;;1.90;99.90;;;;;;4971463;28;20043;-75
2023/01/20 04:15:52;;;;;;;26.60;16.58;;;1.70;99.90;;;;;;4972050;28;20035;-74
2023/01/20 04:18:20;;;;;;;28.25;17.48;;;1.80;99.90;;;;;;4971906;28;20038;-74
2023/01/20 04:21:38;;;;;;;28.23;18.92;;;1.80;99.90;;;;;;4971716;28;20031;-74
2023/01/20 04:24:11;;;;;;;26.98;17.55;;;1.80;99.90;;;;;;4969112;28;20090;-75
2023/01/20 04:26:37;;;;;;;25.90;16.77;;;1.80;99.90;;;;;;4971696;28;20122;-73
2023/01/20 04:29:07;;;;;;;25.67;17.30;;;1.80;99.90;;;;;;4971473;28;20094;-73
2023/01/20 04:31:36;;;;;;;24.67;16.27;;;1.80;99.90;;;;;;4978283;28;20050;-73
2023/01/20 04:34:03;;;;;;;23.23;15.07;;;1.80;99.90;;;;;;5012489;28;20397;-73
2023/01/20 04:36:29;;;;;;;24.15;15.55;;;1.90;99.90;;;;;;5012462;28;20080;-73
2023/01/20 04:38:55;;;;;;;26.08;15.27;;;1.90;99.90;;;;;;5012412;28;20026;-74
2023/01/20 04:41:21;;;;;;;26.00;15.30;;;1.90;99.90;;;;;;5012405;28;20022;-74
2023/01/20 04:43:47;;;;;;;25.05;15.90;;;1.90;99.90;;;;;;5012827;28;20049;-73
2023/01/20 04:46:14;;;;;;;24.90;15.27;;;1.90;99.90;;;;;;5012097;28;20366;-73
2023/01/20 04:48:41;;;;;;;27.25;15.82;;;1.90;99.90;;;;;;5012394;28;20054;-73
2023/01/20 04:51:07;;;;;;;25.63;16.63;;;1.90;99.90;;;;;;5011893;28;20825;-74
2023/01/20 04:53:33;;;;;;;23.92;15.32;;;1.90;99.90;;;;;;5012491;28;20057;-74
2023/01/20 04:55:59;;;;;;;29.95;21.77;;;2.00;99.90;;;;;;5012228;28;20053;-74
2023/01/20 04:58:25;;;;;;;39.63;27.77;;;2.00;99.90;;;;;;5012078;28;20025;-73
2023/01/20 05:00:51;;;;;;;43.35;31.73;;;1.90;99.90;;;;;;5011747;28;20477;-73
2023/01/20 05:03:17;;;;;;;34.97;23.75;;;2.00;99.90;;;;;;5012303;28;20021;-73
2023/01/20 05:05:43;;;;;;;24.83;15.40;;;1.90;99.90;;;;;;5011075;28;20029;-73
2023/01/20 05:08:08;;;;;;;25.60;16.30;;;1.90;99.90;;;;;;5012204;28;20033;-73
2023/01/20 05:10:34;;;;;;;24.10;16.48;;;1.90;99.90;;;;;;5010908;28;20065;-73
2023/01/20 05:13:00;;;;;;;24.35;15.80;;;1.80;99.90;;;;;;4997372;28;20030;-73
2023/01/20 05:15:26;;;;;;;25.08;15.52;;;1.80;99.90;;;;;;5009050;28;20501;-73
2023/01/20 05:17:52;;;;;;;29.25;17.13;;;1.80;99.90;;;;;;5011714;28;20026;-73
2023/01/20 05:20:19;;;;;;;28.08;17.35;;;1.80;99.90;;;;;;5011814;28;20029;-73
2023/01/20 05:22:46;;;;;;;30.67;18.98;;;1.90;99.90;;;;;;5011947;28;20025;-73
2023/01/20 05:25:12;;;;;;;29.73;19.52;;;1.80;99.90;;;;;;5012234;28;20540;-72
2023/01/20 05:27:38;;;;;;;28.40;18.23;;;1.90;99.90;;;;;;5012238;28;20022;-73
2023/01/20 05:30:06;;;;;;;30.80;19.15;;;1.90;99.90;;;;;;5012021;28;20392;-73
2023/01/20 05:32:32;;;;;;;35.03;22.20;;;1.90;99.90;;;;;;5011977;28;20026;-73
2023/01/20 05:34:58;;;;;;;37.10;23.27;;;1.90;99.90;;;;;;5011631;28;20057;-73
2023/01/20 05:37:24;;;;;;;33.47;20.17;;;1.90;99.90;;;;;;4999828;28;20062;-73
2023/01/20 05:39:50;;;;;;;29.30;18.67;;;2.00;99.90;;;;;;5010655;28;20105;-73
2023/01/20 05:42:15;;;;;;;34.85;19.65;;;1.90;99.90;;;;;;5011931;28;20133;-73
2023/01/20 05:44:41;;;;;;;34.85;22.52;;;2.00;99.90;;;;;;5011815;28;20430;-73
2023/01/20 05:47:07;;;;;;;33.15;22.83;;;1.90;99.90;;;;;;5012128;28;20532;-74
2023/01/20 05:49:33;;;;;;;35.38;22.88;;;2.00;99.90;;;;;;5011776;28;20069;-73
2023/01/20 05:51:59;;;;;;;33.72;22.63;;;1.90;99.90;;;;;;5011753;28;20038;-73
2023/01/20 05:54:25;;;;;;;31.65;20.42;;;1.90;99.90;;;;;;5011342;28;20029;-73
2023/01/20 05:56:51;;;;;;;31.73;22.88;;;1.90;99.90;;;;;;5011952;28;20041;-73
2023/01/20 05:59:17;;;;;;;38.00;25.02;;;1.80;99.90;;;;;;5011529;28;20026;-73
2023/01/20 06:01:43;;;;;;;36.00;24.63;;;1.70;99.90;;;;;;5011743;28;20444;-73
2023/01/20 06:04:08;;;;;;;37.47;25.50;;;1.80;99.90;;;;;;5011770;28;20045;-72
2023/01/20 06:06:34;;;;;;;36.85;24.08;;;1.80;99.90;;;;;;5011285;28;20034;-73
2023/01/20 06:09:00;;;;;;;34.88;23.80;;;1.70;99.90;;;;;;5010557;28;20034;-73
2023/01/20 06:11:26;;;;;;;37.03;23.70;;;1.70;99.90;;;;;;5011581;28;20052;-73
2023/01/20 06:13:52;;;;;;;35.92;23.38;;;1.60;99.90;;;;;;5011512;28;20477;-73
2023/01/20 06:16:18;;;;;;;40.85;28.90;;;1.60;99.90;;;;;;5012956;28;20036;-73
2023/01/20 06:18:44;;;;;;;45.90;31.75;;;1.60;99.90;;;;;;5015319;28;20072;-73
2023/01/20 06:21:10;;;;;;;37.85;27.60;;;1.50;99.90;;;;;;5015464;28;20040;-73
2023/01/20 06:23:36;;;;;;;37.25;27.00;;;1.50;99.90;;;;;;5015252;28;20065;-72
2023/01/20 06:26:10;;;;;;;38.63;24.90;;;1.50;99.90;;;;;;5046579;28;20053;-73
2023/01/20 06:28:36;;;;;;;38.38;24.98;;;1.50;99.90;;;;;;5011807;28;20053;-74
2023/01/20 06:31:05;;;;;;;35.13;23.60;;;1.50;99.90;;;;;;5005384;28;20478;-73
2023/01/20 06:33:32;;;;;;;35.33;22.83;;;1.50;99.90;;;;;;5014457;28;20034;-73
2023/01/20 06:35:58;;;;;;;37.53;24.02;;;1.50;99.90;;;;;;5015133;28;20032;-72
2023/01/20 06:38:25;;;;;;;32.70;20.50;;;1.50;99.90;;;;;;5014882;28;20068;-73
2023/01/20 06:40:59;;;;;;;38.17;23.90;;;1.50;99.90;;;;;;5015111;28;20026;-73
2023/01/20 06:43:26;;;;;;;36.28;23.42;;;1.50;99.90;;;;;;5013862;28;20025;-73
2023/01/20 06:45:52;;;;;;;36.45;22.90;;;1.50;99.90;;;;;;5002637;28;20026;-73
2023/01/20 06:48:18;;;;;;;32.70;19.95;;;1.50;99.90;;;;;;5014338;28;20504;-73
2023/01/20 06:50:44;;;;;;;37.67;22.85;;;1.50;99.90;;;;;;5014199;28;20125;-73
2023/01/20 06:53:10;;;;;;;34.10;21.23;;;1.50;99.90;;;;;;5014803;28;20061;-72
2023/01/20 06:55:36;;;;;;;32.63;22.13;;;1.50;99.90;;;;;;5014551;28;20014;-72
2023/01/20 06:58:02;;;;;;;33.80;21.00;;;1.50;99.90;;;;;;5014629;28;20072;-73
2023/01/20 07:00:27;;;;;;;31.90;18.35;;;1.50;99.90;;;;;;5014307;28;20454;-72
2023/01/20 07:02:53;;;;;;;34.45;20.27;;;1.50;99.90;;;;;;5014702;28;20100;-73
2023/01/20 07:05:19;;;;;;;33.38;21.45;;;1.50;99.90;;;;;;5014598;28;20100;-74
2023/01/20 07:07:45;;;;;;;30.35;19.85;;;1.50;99.90;;;;;;5046087;28;20429;-73
2023/01/20 07:10:11;;;;;;;31.75;19.85;;;1.60;99.90;;;;;;5014611;28;20061;-73
2023/01/20 07:12:37;;;;;;;29.10;19.88;;;1.60;99.90;;;;;;5013925;28;20034;-72
2023/01/20 07:15:04;;;;;;;31.98;19.80;;;1.60;99.90;;;;;;5014344;28;20033;-72
2023/01/20 07:17:29;;;;;;;30.40;18.88;;;1.60;99.90;;;;;;5014235;28;20100;-72
2023/01/20 07:19:55;;;;;;;27.02;18.40;;;1.60;99.90;;;;;;5014607;28;20026;-73
2023/01/20 07:22:21;;;;;;;25.83;17.10;;;1.60;99.90;;;;;;5013340;28;20100;-72
2023/01/20 07:24:47;;;;;;;25.85;17.00;;;1.50;99.90;;;;;;5013115;28;20057;-72
2023/01/20 07:27:13;;;;;;;25.75;18.02;;;1.60;99.90;;;;;;5013226;28;20041;-73
2023/01/20 07:29:40;;;;;;;26.40;16.80;;;1.60;99.90;;;;;;5014222;28;20032;-73
2023/01/20 07:32:06;;;;;;;30.60;18.88;;;1.60;99.90;;;;;;5013816;28;20037;-72
2023/01/20 07:34:32;;;;;;;30.33;17.77;;;1.60;99.90;;;;;;5013724;28;20030;-72
2023/01/20 07:37:00;;;;;;;32.45;20.30;;;1.70;99.90;;;;;;5013975;28;20029;-72
2023/01/20 07:39:26;;;;;;;32.13;18.65;;;1.70;99.90;;;;;;5014125;28;20030;-72
2023/01/20 07:41:51;;;;;;;32.33;19.05;;;1.60;99.90;;;;;;5013987;28;20026;-73
2023/01/20 07:44:18;;;;;;;29.38;19.88;;;1.70;99.90;;;;;;5045525;28;20466;-73
2023/01/20 07:46:44;;;;;;;28.63;18.42;;;1.70;99.90;;;;;;5013593;28;20029;-72
2023/01/20 07:49:10;;;;;;;37.75;23.08;;;1.70;99.90;;;;;;5013990;28;20490;-72
2023/01/20 07:51:36;;;;;;;36.03;21.27;;;1.70;99.90;;;;;;5013326;28;20278;-73
2023/01/20 07:54:03;;;;;;;29.83;19.77;;;1.70;99.90;;;;;;5013549;28;20381;-72
2023/01/20 07:56:29;;;;;;;35.63;23.73;;;1.70;99.90;;;;;;5013813;28;20025;-73
2023/01/20 07:58:57;;;;;;;37.63;23.23;;;1.70;99.90;;;;;;5045460;28;20392;-73
2023/01/20 08:01:31;;;;;;;42.42;26.20;;;1.70;99.90;;;;;;5013175;28;20021;-75
2023/01/20 08:04:01;;;;;;;43.13;27.10;;;1.70;99.90;;;;;;5013483;28;20110;-71
2023/01/20 08:06:28;;;;;;;38.08;23.88;;;1.80;99.90;;;;;;5013389;28;20425;-72
2023/01/20 08:08:54;;;;;;;36.40;22.45;;;1.80;99.90;;;;;;5013071;28;20034;-72
2023/01/20 08:11:21;;;;;;;34.42;20.98;;;1.90;99.90;;;;;;5013140;28;20030;-73
2023/01/20 08:13:47;;;;;;;31.30;19.83;;;1.90;99.90;;;;;;5013716;28;20014;-76
2023/01/20 08:16:16;;;;;;;33.53;21.23;;;1.90;99.90;;;;;;5013172;28;20058;-72
2023/01/20 08:18:42;;;;;;;31.95;19.52;;;1.90;99.90;;;;;;5013110;28;20061;-72
2023/01/20 08:21:20;;;;;;;29.63;18.90;;;1.90;99.90;;;;;;5013407;28;20061;-72
2023/01/20 08:23:46;;;;;;;31.02;19.40;;;1.80;99.90;;;;;;5012869;28;20101;-73
2023/01/20 08:26:13;;;;;;;31.77;21.63;;;1.90;99.90;;;;;;5013302;28;20029;-72
2023/01/20 08:28:39;;;;;;;39.40;24.40;;;1.90;99.90;;;;;;5012493;28;20014;-73
2023/01/20 08:31:10;;;;;;;32.90;20.88;;;1.90;99.90;;;;;;5012947;28;20104;-72
2023/01/20 08:33:37;;;;;;;34.53;21.75;;;1.90;99.90;;;;;;5012946;28;20030;-75
2023/01/20 08:36:17;;;;;;;32.80;20.90;;;1.90;99.90;;;;;;5012907;28;20018;-72
2023/01/20 08:38:45;;;;;;;36.17;22.73;;;1.90;99.90;;;;;;5012752;28;20056;-75
2023/01/20 08:41:14;;;;;;;33.33;21.38;;;1.90;99.90;;;;;;5013044;28;20037;-72
2023/01/20 08:43:40;;;;;;;31.15;20.38;;;1.90;99.90;;;;;;5013037;28;20022;-73
2023/01/20 08:46:10;;;;;;;34.08;21.35;;;1.90;99.90;;;;;;5012631;28;20026;-73
2023/01/20 08:48:37;;;;;;;30.95;20.40;;;1.90;99.90;;;;;;5043595;28;20049;-73
2023/01/20 08:51:09;;;;;;;34.13;22.80;;;1.90;99.90;;;;;;5012460;28;20081;-73
2023/01/20 08:53:35;;;;;;;35.28;22.67;;;2.00;99.90;;;;;;5012625;28;20078;-74
2023/01/20 08:56:02;;;;;;;41.30;23.85;;;2.00;99.90;;;;;;5012487;28;20429;-73
2023/01/20 08:58:28;;;;;;;32.80;22.08;;;2.10;99.90;;;;;;5012379;28;20032;-73
2023/01/20 09:00:55;;;;;;;32.63;20.80;;;2.00;99.90;;;;;;5012567;28;20160;-72
2023/01/20 09:03:21;;;;;;;32.92;20.85;;;2.10;99.90;;;;;;5012445;28;20473;-72
2023/01/20 09:05:47;;;;;;;31.90;21.15;;;2.10;99.90;;;;;;5012683;28;20497;-72
2023/01/20 09:08:16;;;;;;;32.47;19.90;;;2.20;99.90;;;;;;5012020;28;20076;-72
2023/01/20 09:10:42;;;;;;;30.95;20.00;;;2.20;99.90;;;;;;5012216;28;20034;-72
2023/01/20 09:13:08;;;;;;;29.50;19.65;;;2.10;99.90;;;;;;5012335;28;20470;-72
2023/01/20 09:15:33;;;;;;;34.35;21.65;;;2.10;99.90;;;;;;5012635;28;20072;-71
2023/01/20 09:17:59;;;;;;;29.83;20.90;;;2.00;99.90;;;;;;5012396;28;20080;-72
2023/01/20 09:20:27;;;;;;;35.13;21.52;;;2.10;99.90;;;;;;5011919;28;20165;-72
2023/01/20 09:22:53;;;;;;;34.75;23.55;;;2.10;99.90;;;;;;5012402;28;20022;-72
2023/01/20 09:25:20;;;;;;;32.33;23.10;;;2.10;99.90;;;;;;5012204;28;20041;-72
2023/01/20 09:27:45;;;;;;;37.67;24.33;;;2.10;99.90;;;;;;5012238;28;20034;-71
2023/01/20 09:30:12;;;;;;;39.85;26.80;;;2.30;99.90;;;;;;5011790;28;20516;-72
2023/01/20 09:32:38;;;;;;;40.80;25.65;;;2.30;99.90;;;;;;5012048;28;20109;-72
2023/01/20 09:35:04;;;;;;;41.38;28.08;;;2.20;99.90;;;;;;5012549;28;20026;-72
2023/01/20 09:46:30;;;;;;;40.60;28.27;;;2.50;99.90;;;;;;5012263;28;20030;-72
2023/01/20 09:55:51;;;;;;;38.53;24.63;;;2.40;99.90;;;;;;5005546;28;20025;-73
2023/01/20 09:58:40;;;;;;;38.15;24.95;;;2.40;99.90;;;;;;4974661;28;20030;-73
2023/01/20 10:01:17;;;;;;;41.72;29.75;;;2.50;99.90;;;;;;4974025;28;20534;-73
2023/01/20 10:04:06;;;;;;;50.17;31.48;;;2.40;99.90;;;;;;4974728;28;20051;-72
2023/01/20 10:06:43;;;;;;;52.00;34.95;;;2.60;99.90;;;;;;4958580;28;20034;-72
2023/01/20 10:09:20;;;;;;;48.53;32.20;;;2.40;99.90;;;;;;4974132;28;20465;-73
2023/01/20 10:11:49;;;;;;;39.70;27.23;;;2.50;99.90;;;;;;4974168;28;20525;-73
2023/01/20 10:14:53;;;;;;;41.38;26.15;;;2.40;99.90;;;;;;4974132;28;20117;-72
2023/01/20 10:17:44;;;;;;;41.25;25.55;;;2.30;99.90;;;;;;4978623;28;20038;-74
2023/01/20 10:20:28;;;;;;;40.28;26.15;;;2.30;99.90;;;;;;4973994;28;20043;-73
2023/01/20 10:23:03;;;;;;;38.55;23.77;;;2.40;99.90;;;;;;4974282;28;20126;-73
2023/01/20 10:25:58;;;;;;;41.53;27.13;;;2.40;99.90;;;;;;4974090;28;20113;-73
2023/01/20 10:28:29;;;;;;;43.28;26.90;;;2.40;99.90;;;;;;4936263;29;20039;-73
2023/01/20 10:30:59;;;;;;;43.45;26.90;;;2.40;99.90;;;;;;4935582;29;20050;-76
2023/01/20 10:33:38;;;;;;;45.25;28.90;;;2.50;99.90;;;;;;4973455;28;20097;-76
2023/01/20 10:36:13;;;;;;;43.65;26.13;;;2.40;99.90;;;;;;4973494;28;20030;-75
2023/01/20 10:39:14;;;;;;;37.85;23.80;;;2.50;99.90;;;;;;4971730;28;20035;-73
2023/01/20 10:41:46;;;;;;;35.15;24.25;;;2.50;99.90;;;;;;4984365;28;20096;-73
2023/01/20 10:44:14;;;;;;;38.88;23.70;;;2.50;99.90;;;;;;4977713;28;20855;-72
2023/01/20 10:47:07;;;;;;;34.00;21.20;;;2.40;99.90;;;;;;4987690;28;20041;-73
2023/01/20 10:49:35;;;;;;;34.55;22.60;;;2.40;99.90;;;;;;4975552;28;20057;-73
2023/01/20 10:52:39;;;;;;;33.38;21.17;;;2.60;99.90;;;;;;4973195;28;20067;-75
2023/01/20 10:55:42;;;;;;;31.02;20.77;;;2.60;99.90;;;;;;4956822;28;20035;-72
2023/01/20 10:58:10;;;;;;;35.22;22.98;;;2.50;99.90;;;;;;4972397;28;20526;-75
2023/01/20 11:00:40;;;;;;;37.53;24.98;;;2.60;99.90;;;;;;4973592;28;20034;-73
2023/01/20 11:03:13;;;;;;;35.22;23.27;;;2.60;99.90;;;;;;4972007;28;20389;-73
2023/01/20 11:05:41;;;;;;;30.80;21.75;;;2.60;99.90;;;;;;5005513;28;20038;-72
2023/01/20 11:08:30;;;;;;;33.88;22.70;;;2.70;99.90;;;;;;5013647;28;20477;-73
2023/01/20 11:10:59;;;;;;;37.97;24.20;;;2.80;99.90;;;;;;4933966;29;20055;-74
2023/01/20 11:13:25;;;;;;;34.28;23.95;;;2.80;99.90;;;;;;4934770;29;20051;-74
2023/01/20 11:15:55;;;;;;;34.60;24.90;;;2.90;99.90;;;;;;4934994;29;20040;-72
2023/01/20 11:18:27;;;;;;;38.42;24.25;;;2.80;99.90;;;;;;4934046;29;20028;-73
2023/01/20 11:21:11;;;;;;;35.10;23.58;;;2.90;99.90;;;;;;4934796;29;20044;-74
2023/01/20 11:23:51;;;;;;;33.50;21.25;;;2.80;99.90;;;;;;4933731;29;20115;-74
2023/01/20 11:26:19;;;;;;;33.38;19.85;;;2.70;99.90;;;;;;4933619;29;20035;-72
2023/01/20 11:28:53;;;;;;;33.65;20.60;;;2.60;99.90;;;;;;4934217;28;20047;-73
2023/01/20 11:31:31;;;;;;;32.55;20.70;;;2.70;99.90;;;;;;4934329;29;20048;-73
2023/01/20 11:34:02;;;;;;;35.55;22.33;;;2.60;99.90;;;;;;4934726;29;20038;-73
2023/01/20 11:36:28;;;;;;;31.13;20.33;;;2.60;99.90;;;;;;4934459;29;20032;-72
2023/01/20 11:38:56;;;;;;;31.05;19.73;;;2.40;99.90;;;;;;4914624;29;20020;-73
2023/01/20 11:41:28;;;;;;;31.88;20.90;;;2.30;99.90;;;;;;4932399;29;20048;-75
2023/01/20 11:43:59;;;;;;;33.67;21.00;;;2.40;99.90;;;;;;4933632;29;20027;-73
2023/01/20 11:46:30;;;;;;;33.42;21.00;;;2.40;99.90;;;;;;4933978;29;20479;-73
2023/01/20 11:49:25;;;;;;;31.38;20.33;;;2.50;99.90;;;;;;5005287;28;20133;-75
2023/01/20 11:51:55;;;;;;;34.22;21.60;;;2.50;99.90;;;;;;4933972;29;20055;-73
2023/01/20 11:54:28;;;;;;;32.97;21.65;;;2.40;99.90;;;;;;4933968;29;20035;-73
2023/01/20 11:57:05;;;;;;;36.80;22.45;;;2.40;99.90;;;;;;4933556;29;20091;-73
2023/01/20 11:59:34;;;;;;;33.55;21.63;;;2.60;99.90;;;;;;4930716;29;20035;-73
2023/01/20 12:02:05;;;;;;;33.67;21.98;;;2.50;99.90;;;;;;4933452;29;20067;-73
2023/01/20 12:05:26;;;;;;;34.67;22.60;;;2.50;99.90;;;;;;4933583;29;20038;-74
2023/01/20 12:07:52;;;;;;;34.53;22.80;;;2.50;99.90;;;;;;4895983;29;20036;-74
2023/01/20 12:10:24;;;;;;;35.72;21.85;;;2.50;99.90;;;;;;4894492;29;20036;-75
2023/01/20 12:13:00;;;;;;;34.03;23.10;;;2.50;99.90;;;;;;4895807;29;20453;-76
2023/01/20 12:15:32;;;;;;;37.53;24.65;;;2.50;99.90;;;;;;4893465;29;20124;-73
2023/01/20 12:18:07;;;;;;;35.85;23.83;;;2.50;99.90;;;;;;4895416;29;20560;-73
2023/01/20 12:20:55;;;;;;;38.20;25.30;;;2.50;99.90;;;;;;4893882;29;20037;-73
2023/01/20 12:23:45;;;;;;;37.58;24.02;;;2.60;99.90;;;;;;4893894;29;20504;-72
2023/01/20 12:26:16;;;;;;;36.15;24.85;;;2.60;99.90;;;;;;4896479;29;20051;-71
2023/01/20 12:29:04;;;;;;;37.15;23.73;;;2.70;99.90;;;;;;4935560;29;20039;-72
2023/01/20 12:31:31;;;;;;;38.65;25.05;;;2.60;99.90;;;;;;4950062;29;20031;-72
2023/01/20 12:34:03;;;;;;;36.70;24.48;;;2.60;99.90;;;;;;4953315;29;20031;-70
2023/01/20 12:37:06;;;;;;;36.38;24.15;;;2.50;99.90;;;;;;4953545;29;20035;-71
2023/01/20 12:39:55;;;;;;;33.70;25.15;;;2.60;99.90;;;;;;4941267;29;20089;-72
2023/01/20 12:42:48;;;;;;;37.42;24.63;;;2.60;99.90;;;;;;4995875;28;20045;-72
2023/01/20 12:45:33;;;;;;;34.75;22.30;;;2.60;99.90;;;;;;5013729;28;20504;-71
2023/01/20 12:48:24;;;;;;;34.75;21.75;;;2.50;99.90;;;;;;5013165;28;20053;-71
2023/01/20 12:50:53;;;;;;;35.53;21.95;;;2.50;99.90;;;;;;4924368;29;20048;-72
2023/01/20 12:53:43;;;;;;;32.88;22.55;;;2.50;99.90;;;;;;4933333;29;20438;-72
2023/01/20 12:56:28;;;;;;;36.47;22.45;;;2.70;99.90;;;;;;4934212;29;20055;-72
2023/01/20 12:59:23;;;;;;;34.00;21.90;;;2.60;99.90;;;;;;4934067;29;20032;-72
2023/01/20 13:02:13;;;;;;;31.10;21.42;;;2.60;99.90;;;;;;4934053;29;20098;-72
2023/01/20 13:05:05;;;;;;;39.42;24.70;;;2.70;99.90;;;;;;4933648;29;20035;-73
2023/01/20 13:07:51;;;;;;;37.40;23.80;;;2.80;99.90;;;;;;4924956;28;20071;-72
2023/01/20 13:10:22;;;;;;;46.03;28.80;;;2.70;99.90;;;;;;4933571;29;20035;-71
2023/01/20 13:12:52;;;;;;;42.25;26.63;;;2.80;99.90;;;;;;4934051;29;20036;-71